Gratiot, Ohio
Current Conditions -  °F | °C
As of 11:54 AM on Thursday 23 Oct 2014 (Local Time) from KVTA Reporting Station
Clear Clear  
Wind Chill: 53°   Ceiling: Unl
Heat Index: 53°   Visibility: 10mi
Dew Point: 42°   Wind: 3mph
Humidity: 66%   Direction: 350°N
Pressure: 30.23"   Gusts: NA
Location:  39.95°N, 82.22°W
Report Text: KVTA 231554Z AUTO 35003KT 10SM CLR 12/06 A3023 RMK AO2 SLP237 T01170056
Loading
Personal Weather Stations






























Interactive Weather Map
Tropical Storm Tracking
New forecast layout! Learn more

10-Day Weather Forecast

Advertisements
Track Severe Weather on mobile